Time;durP1;ratioP1;P1;durP2;ratioP2;P2;SDS_P1;SDS_P2;PMS_P1;PMS_P2;Temp;Humidity;BMP_temperature;BMP_pressure;BME280_temperature;BME280_humidity;BME280_pressure;Samples;Min_cycle;Max_cycle;Signal;HPM_P1;HPM_P2
2023/04/26 01:20:25;;;;;;;1.20;1.10;;;;;;;;;;6050430;23;20229;-95
2023/04/26 01:45:17;;;;;;;1.30;1.07;;;;;;;;;;5018873;28;20273;-95
2023/04/26 06:22:21;;;;;;;1.38;1.27;;;;;;;;;;4982508;28;20206;-93
2023/04/26 06:43:48;;;;;;;1.17;1.17;;;;;;;;;;4969503;28;20214;-92
2023/04/26 07:06:47;;;;;;;1.23;1.13;;;;;;;;;;5010167;28;20231;-93
2023/04/26 07:18:24;;;;;;;;;;;;;;;;;;;;;
2023/04/26 07:54:09;;;;;;;1.30;1.30;;;;;;;;;;4973426;28;20223;-92
2023/04/26 07:56:45;;;;;;;1.63;0.95;;;;;;;;;;5000634;28;20347;-91
2023/04/26 07:59:41;;;;;;;0.85;0.85;;;;;;;;;;4998997;28;20198;-91
2023/04/26 08:11:36;;;;;;;0.80;0.80;;;;;;;;;;4958972;28;20249;-94
2023/04/26 08:14:19;;;;;;;1.10;1.10;;;;;;;;;;4966610;29;20707;-93
2023/04/26 08:17:01;;;;;;;1.00;1.00;;;;;;;;;;4967369;29;20212;-94
2023/04/26 08:19:38;;;;;;;0.85;0.85;;;;;;;;;;4966765;29;20209;-93
2023/04/26 08:22:30;;;;;;;0.80;0.80;;;;;;;;;;4965226;29;20201;-92
2023/04/26 08:25:08;;;;;;;1.40;1.30;;;;;;;;;;4968269;29;20205;-94
2023/04/26 08:28:03;;;;;;;0.95;0.93;;;;;;;;;;4966768;29;20206;-94
2023/04/26 08:30:52;;;;;;;1.05;1.05;;;;;;;;;;4964752;29;20269;-93
2023/04/26 08:39:50;;;;;;;1.05;0.98;;;;;;;;;;4887664;29;20208;-93
2023/04/26 08:42:52;;;;;;;0.95;0.95;;;;;;;;;;4965927;29;20236;-92
2023/04/26 08:45:43;;;;;;;0.98;0.90;;;;;;;;;;4967354;29;20232;-94
2023/04/26 08:48:16;;;;;;;0.70;0.70;;;;;;;;;;4965558;29;20249;-90
2023/04/26 08:50:53;;;;;;;0.90;0.90;;;;;;;;;;4968682;29;20655;-94
2023/04/26 08:53:29;;;;;;;0.65;0.65;;;;;;;;;;4971595;29;20206;-94
2023/04/26 08:59:10;;;;;;;1.02;1.02;;;;;;;;;;4964337;29;20207;-94
2023/04/26 09:01:45;;;;;;;0.95;0.95;;;;;;;;;;4964501;29;20234;-92
2023/04/26 09:04:26;;;;;;;0.93;0.93;;;;;;;;;;4965949;29;20294;-92
2023/04/26 09:07:00;;;;;;;0.50;0.50;;;;;;;;;;4968571;29;20206;-95
2023/04/26 09:09:37;;;;;;;0.80;0.80;;;;;;;;;;4965526;29;20243;-94
2023/04/26 09:12:14;;;;;;;1.17;1.00;;;;;;;;;;4964258;28;20235;-94
2023/04/26 09:14:46;;;;;;;1.10;0.98;;;;;;;;;;4963808;29;20204;-91
2023/04/26 09:17:40;;;;;;;1.05;1.05;;;;;;;;;;4959831;29;20369;-96
2023/04/26 09:20:21;;;;;;;0.80;0.80;;;;;;;;;;4960639;29;20218;-93
2023/04/26 09:25:59;;;;;;;;;;;;;;;;;;;;;
2023/04/26 09:28:42;;;;;;;0.80;0.80;;;;;;;;;;4969909;29;20224;-94
2023/04/26 09:40:41;;;;;;;0.52;0.52;;;;;;;;;;4949087;29;20199;-92
2023/04/26 09:43:10;;;;;;;0.80;0.80;;;;;;;;;;4962065;29;20305;-93
2023/04/26 09:48:53;;;;;;;0.70;0.60;;;;;;;;;;4960518;29;20234;-92
2023/04/26 09:51:39;;;;;;;0.65;0.65;;;;;;;;;;4963439;29;20213;-93
2023/04/26 09:54:20;;;;;;;0.60;0.60;;;;;;;;;;4975543;29;20228;-93
2023/04/26 09:57:18;;;;;;;0.98;0.98;;;;;;;;;;4966596;29;20202;-94
2023/04/26 10:00:08;;;;;;;0.98;0.95;;;;;;;;;;4962112;29;20206;-94
2023/04/26 10:02:48;;;;;;;0.65;0.65;;;;;;;;;;4959384;29;20285;-93
2023/04/26 10:05:32;;;;;;;0.73;0.73;;;;;;;;;;4959719;29;20202;-95
2023/04/26 10:08:10;;;;;;;0.60;0.60;;;;;;;;;;4967741;29;20222;-92
2023/04/26 10:10:52;;;;;;;0.77;0.77;;;;;;;;;;4967349;28;20298;-93
2023/04/26 10:16:28;;;;;;;0.40;0.40;;;;;;;;;;4946910;29;20289;-93
2023/04/26 10:19:08;;;;;;;0.60;0.60;;;;;;;;;;4961673;29;20704;-94
2023/04/26 10:21:41;;;;;;;0.60;0.60;;;;;;;;;;4960026;29;20203;-93
2023/04/26 10:24:22;;;;;;;0.50;0.50;;;;;;;;;;4960335;28;20870;-92
2023/04/26 10:30:02;;;;;;;0.68;0.68;;;;;;;;;;4958333;29;20245;-93
2023/04/26 10:32:32;;;;;;;1.42;0.47;;;;;;;;;;4958601;29;20320;-93
2023/04/26 10:35:21;;;;;;;0.45;0.45;;;;;;;;;;4958560;29;20317;-94
2023/04/26 10:38:14;;;;;;;0.38;0.38;;;;;;;;;;4960624;29;20702;-92
2023/04/26 10:40:57;;;;;;;0.43;0.43;;;;;;;;;;4960789;29;20204;-93
2023/04/26 10:43:44;;;;;;;2.08;0.70;;;;;;;;;;4963046;29;20320;-92
2023/04/26 10:46:41;;;;;;;0.43;0.43;;;;;;;;;;4961219;29;20268;-93
2023/04/26 10:49:23;;;;;;;0.32;0.32;;;;;;;;;;4961629;29;20253;-92
2023/04/26 10:52:12;;;;;;;0.77;0.77;;;;;;;;;;4959382;29;20691;-93
2023/04/26 10:54:53;;;;;;;0.40;0.40;;;;;;;;;;4960048;29;20202;-92
2023/04/26 11:04:15;;;;;;;0.85;0.85;;;;;;;;;;4770422;30;20208;-92
2023/04/26 11:06:59;;;;;;;0.50;0.50;;;;;;;;;;4805401;29;20217;-92
2023/04/26 11:12:30;;;;;;;0.55;0.55;;;;;;;;;;5048847;23;20713;-93
2023/04/26 11:15:30;;;;;;;0.55;0.55;;;;;;;;;;5018136;28;20204;-93
2023/04/26 11:18:04;;;;;;;0.50;0.50;;;;;;;;;;5015822;28;20301;-94
2023/04/26 11:20:58;;;;;;;0.50;0.50;;;;;;;;;;5015990;28;20233;-94
2023/04/26 11:26:31;;;;;;;0.47;0.47;;;;;;;;;;5014768;28;20207;-94
2023/04/26 11:29:13;;;;;;;0.73;0.73;;;;;;;;;;5017157;28;20227;-93
2023/04/26 11:31:46;;;;;;;0.50;0.50;;;;;;;;;;5017066;28;20205;-94
2023/04/26 11:34:17;;;;;;;0.45;0.45;;;;;;;;;;5017935;28;20206;-92
2023/04/26 11:36:55;;;;;;;0.45;0.45;;;;;;;;;;5019649;28;20268;-94
2023/04/26 11:39:35;;;;;;;0.60;0.60;;;;;;;;;;5021080;28;20299;-93
2023/04/26 11:45:22;;;;;;;1.05;0.73;;;;;;;;;;5023605;23;20374;-94
2023/04/26 11:48:01;;;;;;;0.70;0.70;;;;;;;;;;5018670;28;20368;-94
2023/04/26 11:50:31;;;;;;;1.02;1.02;;;;;;;;;;5018486;28;20322;-95
2023/04/26 11:53:02;;;;;;;0.73;0.73;;;;;;;;;;5019292;28;20207;-93
2023/04/26 12:01:32;;;;;;;0.50;0.50;;;;;;;;;;4967335;28;20292;-92
2023/04/26 12:23:28;;;;;;;;;;;;;;;;;;;;;
2023/04/26 12:26:14;;;;;;;0.93;0.93;;;;;;;;;;5005447;28;20220;-93
2023/04/26 12:34:39;;;;;;;0.43;0.43;;;;;;;;;;5008877;28;20286;-92
2023/04/26 12:55:48;;;;;;;0.52;0.52;;;;;;;;;;4778227;30;20220;-89
2023/04/26 12:58:38;;;;;;;0.82;0.82;;;;;;;;;;4798343;30;20210;-92
2023/04/26 13:12:48;;;;;;;1.02;0.80;;;;;;;;;;4999597;28;20204;-93
2023/04/26 13:21:18;;;;;;;0.80;0.80;;;;;;;;;;5014253;28;20274;-93
2023/04/26 13:24:05;;;;;;;0.77;0.77;;;;;;;;;;5016449;28;20203;-91
2023/04/26 13:26:50;;;;;;;0.60;0.60;;;;;;;;;;5015728;28;20598;-93
2023/04/26 13:32:20;;;;;;;0.50;0.50;;;;;;;;;;4956876;29;20708;-93
2023/04/26 13:34:53;;;;;;;0.53;0.53;;;;;;;;;;4996850;28;20211;-93
2023/04/26 13:37:46;;;;;;;0.70;0.70;;;;;;;;;;5018093;28;20201;-93
2023/04/26 13:40:30;;;;;;;0.97;0.93;;;;;;;;;;5017412;28;20201;-92
2023/04/26 13:46:17;;;;;;;1.00;1.00;;;;;;;;;;4900844;29;20393;-94
2023/04/26 14:11:06;;;;;;;1.10;1.00;;;;;;;;;;4728184;30;20252;-93
2023/04/26 14:16:34;;;;;;;1.27;1.27;;;;;;;;;;4998345;28;20650;-93
2023/04/26 14:19:18;;;;;;;1.00;1.00;;;;;;;;;;4998884;28;20209;-92
2023/04/26 14:22:00;;;;;;;1.37;1.00;;;;;;;;;;5002074;28;20201;-93
2023/04/26 14:28:04;;;;;;;1.67;1.60;;;;;;;;;;4966870;28;20375;-94
2023/04/26 14:30:44;;;;;;;1.20;1.10;;;;;;;;;;5007540;28;20250;-93
2023/04/26 14:33:22;;;;;;;1.03;1.03;;;;;;;;;;5011416;28;20197;-93
2023/04/26 14:36:02;;;;;;;3.37;1.20;;;;;;;;;;5015517;28;20222;-93
2023/04/26 14:41:50;;;;;;;2.00;1.60;;;;;;;;;;5001449;28;20186;-91
2023/04/26 14:44:46;;;;;;;;;;;;;;;;;;;;;
2023/04/26 14:47:23;;;;;;;1.47;1.47;;;;;;;;;;5023282;28;20215;-92
2023/04/26 14:49:57;;;;;;;2.50;1.63;;;;;;;;;;5034394;28;20213;-91
2023/04/26 14:52:33;;;;;;;3.43;1.70;;;;;;;;;;5032179;28;20195;-95
2023/04/26 14:55:05;;;;;;;1.43;1.33;;;;;;;;;;5023908;28;20218;-92
2023/04/26 14:57:34;;;;;;;0.70;0.70;;;;;;;;;;5021255;28;20207;-94
2023/04/26 15:00:12;;;;;;;1.30;1.20;;;;;;;;;;5018037;28;20291;-93
2023/04/26 15:03:01;;;;;;;1.30;1.30;;;;;;;;;;5017142;28;20205;-94
2023/04/26 15:05:38;;;;;;;1.37;1.27;;;;;;;;;;5018756;28;20201;-93
2023/04/26 15:11:03;;;;;;;2.13;1.37;;;;;;;;;;5022220;28;20713;-94
2023/04/26 15:13:56;;;;;;;1.30;1.20;;;;;;;;;;5024062;28;20693;-94
2023/04/26 15:16:54;;;;;;;;;;;;;;;;;;;;;
2023/04/26 15:19:38;;;;;;;2.03;1.93;;;;;;;;;;4966620;28;20208;-93
2023/04/26 15:22:12;;;;;;;2.93;2.20;;;;;;;;;;5022180;28;20674;-92
2023/04/26 15:24:50;;;;;;;3.33;1.10;;;;;;;;;;5021289;28;20209;-94
2023/04/26 15:27:28;;;;;;;1.43;1.43;;;;;;;;;;5019963;28;20189;-92
2023/04/26 15:30:07;;;;;;;1.50;1.40;;;;;;;;;;5021607;28;20233;-91
2023/04/26 15:32:37;;;;;;;1.70;1.47;;;;;;;;;;5029560;28;20280;-92
2023/04/26 15:38:01;;;;;;;1.70;1.60;;;;;;;;;;5021771;28;20200;-93
2023/04/26 15:40:37;;;;;;;3.50;2.37;;;;;;;;;;5023261;28;20223;-94
2023/04/26 15:43:26;;;;;;;2.50;2.10;;;;;;;;;;5023526;28;20198;-94
2023/04/26 15:45:57;;;;;;;5.30;2.90;;;;;;;;;;5010633;28;20341;-94
2023/04/26 15:52:01;;;;;;;1.67;1.57;;;;;;;;;;4921989;29;20397;-96
2023/04/26 15:54:31;;;;;;;1.83;1.73;;;;;;;;;;5023650;28;20304;-95
2023/04/26 15:57:23;;;;;;;3.20;1.80;;;;;;;;;;5023373;28;20202;-93
2023/04/26 16:00:16;;;;;;;4.20;3.00;;;;;;;;;;5023697;28;20203;-94
2023/04/26 16:03:01;;;;;;;1.73;1.63;;;;;;;;;;5026693;28;20285;-92
2023/04/26 16:08:31;;;;;;;4.03;1.90;;;;;;;;;;5029972;28;20241;-94
2023/04/26 16:11:11;;;;;;;3.97;2.33;;;;;;;;;;5027756;28;20250;-93
2023/04/26 16:13:50;;;;;;;4.07;3.03;;;;;;;;;;5035099;28;20198;-94
2023/04/26 16:16:22;;;;;;;4.50;1.60;;;;;;;;;;5037232;28;20194;-95
2023/04/26 16:18:52;;;;;;;2.70;2.10;;;;;;;;;;5024141;28;20285;-94
2023/04/26 16:21:26;;;;;;;5.37;1.97;;;;;;;;;;5022264;28;20209;-93
2023/04/26 16:24:23;;;;;;;1.70;1.60;;;;;;;;;;5021751;28;20196;-94
2023/04/26 16:27:04;;;;;;;1.77;1.67;;;;;;;;;;5021508;28;20221;-94
2023/04/26 16:29:46;;;;;;;4.10;1.57;;;;;;;;;;5022295;28;20196;-93
2023/04/26 16:32:17;;;;;;;5.33;2.60;;;;;;;;;;5021099;28;20213;-96
2023/04/26 16:34:59;;;;;;;2.83;2.37;;;;;;;;;;5021041;28;20201;-93
2023/04/26 16:37:43;;;;;;;;;;;;;;;;;;;;;
2023/04/26 16:43:38;;;;;;;;;;;;;;;;;;;;;
2023/04/26 16:46:26;;;;;;;2.37;2.17;;;;;;;;;;5020869;28;20248;-93
2023/04/26 16:49:25;;;;;;;;;;;;;;;;;;;;;
2023/04/26 16:52:09;;;;;;;3.17;2.93;;;;;;;;;;5026537;28;20327;-95
2023/04/26 16:57:53;;;;;;;2.83;1.53;;;;;;;;;;5006523;28;20272;-93
2023/04/26 17:00:43;;;;;;;2.53;1.33;;;;;;;;;;5017629;28;20203;-94
2023/04/26 17:03:27;;;;;;;4.40;2.63;;;;;;;;;;5020644;28;20200;-94
2023/04/26 17:09:09;;;;;;;1.50;1.40;;;;;;;;;;4995146;28;20235;-93
2023/04/26 17:11:49;;;;;;;4.10;2.10;;;;;;;;;;5019667;28;20232;-92
2023/04/26 17:14:31;;;;;;;3.83;2.90;;;;;;;;;;5019880;28;20212;-94
2023/04/26 17:23:35;;;;;;;4.23;2.33;;;;;;;;;;5016910;28;20270;-95
2023/04/26 17:26:32;;;;;;;4.43;2.87;;;;;;;;;;5015692;28;20231;-95
2023/04/26 19:06:46;;;;;;;10.93;1.50;;;;;;;;;;4990635;28;20225;-90
2023/04/26 19:09:28;;;;;;;1.50;1.40;;;;;;;;;;4992675;28;20225;-91
2023/04/26 19:12:10;;;;;;;1.23;1.20;;;;;;;;;;5010242;28;20240;-90
2023/04/26 19:14:53;;;;;;;1.10;1.10;;;;;;;;;;5011860;28;20600;-90
2023/04/26 19:20:27;;;;;;;0.63;0.63;;;;;;;;;;5012346;28;20230;-89
2023/04/26 19:23:15;;;;;;;;;;;;;;;;;;;;;
2023/04/26 19:26:04;;;;;;;0.90;0.90;;;;;;;;;;5012541;28;20565;-91
2023/04/26 19:44:01;;;;;;;;;;;;;;;;;;;;;
2023/04/26 19:46:47;;;;;;;1.03;0.87;;;;;;;;;;5034223;28;20287;-90
2023/04/26 19:49:33;;;;;;;0.20;0.20;;;;;;;;;;5028039;28;20223;-91
2023/04/26 19:55:06;;;;;;;0.40;0.40;;;;;;;;;;5032297;28;20224;-91
2023/04/26 19:57:58;;;;;;;0.47;0.47;;;;;;;;;;5037785;28;20220;-95
2023/04/26 20:04:15;;;;;;;0.73;0.73;;;;;;;;;;5017001;28;20239;-90
2023/04/26 20:19:00;;;;;;;0.50;0.50;;;;;;;;;;4947760;29;20234;-89
2023/04/26 20:24:37;;;;;;;0.77;0.77;;;;;;;;;;5018207;28;20228;-94
2023/04/26 20:33:12;;;;;;;2.17;1.43;;;;;;;;;;4971178;28;20241;-93
2023/04/26 20:44:17;;;;;;;1.23;1.13;;;;;;;;;;5021532;28;20676;-94
2023/04/26 21:06:59;;;;;;;1.70;0.87;;;;;;;;;;4946915;29;20207;-90
2023/04/26 21:21:14;;;;;;;0.40;0.40;;;;;;;;;;5020079;28;20600;-90
2023/04/26 21:24:11;;;;;;;9.90;1.10;;;;;;;;;;5028288;28;20196;-89
2023/04/26 21:26:52;;;;;;;0.77;0.30;;;;;;;;;;5033189;28;20220;-90
2023/04/26 21:29:42;;;;;;;0.60;0.60;;;;;;;;;;5029238;28;20290;-91
2023/04/26 21:35:21;;;;;;;;;;;;;;;;;;;;;
2023/04/26 21:38:19;;;;;;;0.37;0.37;;;;;;;;;;5010402;28;20661;-90
2023/04/26 21:40:52;;;;;;;1.07;0.67;;;;;;;;;;5018129;28;20231;-90
2023/04/26 21:43:37;;;;;;;2.33;0.93;;;;;;;;;;5018498;28;20232;-89
2023/04/26 21:46:15;;;;;;;0.50;0.50;;;;;;;;;;5018920;28;20197;-90
2023/04/26 21:48:49;;;;;;;0.57;0.57;;;;;;;;;;5018479;28;20288;-90
2023/04/26 21:51:21;;;;;;;0.40;0.40;;;;;;;;;;5018859;28;20192;-90
2023/04/26 21:53:58;;;;;;;3.13;0.50;;;;;;;;;;5020675;28;20203;-91
2023/04/26 21:56:32;;;;;;;0.50;0.50;;;;;;;;;;5016613;28;20319;-90
2023/04/26 21:59:05;;;;;;;0.23;0.23;;;;;;;;;;5018937;28;20201;-88
2023/04/26 22:01:34;;;;;;;3.10;1.10;;;;;;;;;;5020806;28;20317;-90
2023/04/26 22:04:07;;;;;;;0.30;0.20;;;;;;;;;;5022508;28;20235;-91
2023/04/26 22:06:35;;;;;;;30.17;1.50;;;;;;;;;;5003840;28;20281;-89
2023/04/26 22:09:07;;;;;;;0.33;0.33;;;;;;;;;;4998533;28;20252;-90
2023/04/26 22:11:36;;;;;;;2.10;0.50;;;;;;;;;;4984031;28;20245;-89
2023/04/26 22:14:04;;;;;;;1.23;0.60;;;;;;;;;;4978213;28;20702;-89
2023/04/26 22:16:35;;;;;;;2.73;0.70;;;;;;;;;;4976956;28;20604;-90
2023/04/26 22:19:09;;;;;;;0.37;0.33;;;;;;;;;;4978221;28;20639;-91
2023/04/26 22:21:39;;;;;;;1.20;0.70;;;;;;;;;;4980506;28;20198;-91
2023/04/26 22:24:09;;;;;;;0.63;0.63;;;;;;;;;;4977017;28;20582;-90
2023/04/26 22:26:39;;;;;;;0.43;0.43;;;;;;;;;;4976336;28;20201;-90
2023/04/26 22:29:07;;;;;;;1.17;1.17;;;;;;;;;;4975825;28;20204;-89
2023/04/26 22:31:35;;;;;;;0.53;0.30;;;;;;;;;;4975251;28;20265;-91
2023/04/26 22:34:14;;;;;;;0.47;0.47;;;;;;;;;;4976971;28;20214;-90
2023/04/26 22:36:45;;;;;;;0.40;0.40;;;;;;;;;;4976232;28;20266;-91
2023/04/26 22:39:14;;;;;;;1.50;1.47;;;;;;;;;;4975483;28;20218;-91
2023/04/26 22:41:42;;;;;;;0.80;0.80;;;;;;;;;;4974061;28;20691;-89
2023/04/26 22:44:13;;;;;;;0.83;0.73;;;;;;;;;;4975419;28;20284;-89
2023/04/26 22:46:46;;;;;;;0.90;0.87;;;;;;;;;;4975256;28;20204;-89
2023/04/26 22:49:14;;;;;;;0.97;0.97;;;;;;;;;;4975461;28;20209;-89
2023/04/26 22:51:56;;;;;;;0.53;0.53;;;;;;;;;;4975374;28;20624;-90
2023/04/26 22:54:26;;;;;;;0.40;0.40;;;;;;;;;;4974902;28;20208;-90
2023/04/26 22:56:55;;;;;;;0.10;0.10;;;;;;;;;;4975739;28;20213;-89
2023/04/26 22:59:32;;;;;;;10.70;1.27;;;;;;;;;;4974585;28;20633;-91
2023/04/26 23:02:10;;;;;;;1.20;1.10;;;;;;;;;;4975700;28;20218;-89
2023/04/26 23:04:40;;;;;;;2.07;0.20;;;;;;;;;;4976837;28;20220;-89
2023/04/26 23:07:20;;;;;;;1.70;1.23;;;;;;;;;;4992350;28;20233;-91
2023/04/26 23:09:48;;;;;;;0.53;0.53;;;;;;;;;;4994296;28;20224;-90
2023/04/26 23:12:22;;;;;;;2.00;0.70;;;;;;;;;;4993354;28;20806;-90
2023/04/26 23:14:51;;;;;;;0.83;0.63;;;;;;;;;;4994276;28;20654;-90
2023/04/26 23:17:25;;;;;;;0.20;0.20;;;;;;;;;;4993320;28;20194;-89
2023/04/26 23:19:53;;;;;;;0.23;0.23;;;;;;;;;;4999554;28;20473;-89
2023/04/26 23:22:27;;;;;;;0.10;0.10;;;;;;;;;;5000451;28;20193;-90
2023/04/26 23:24:55;;;;;;;0.20;0.20;;;;;;;;;;4997712;28;20205;-90
2023/04/26 23:27:27;;;;;;;0.40;0.40;;;;;;;;;;4988845;28;20210;-90
2023/04/26 23:29:55;;;;;;;0.50;0.50;;;;;;;;;;4975309;28;20211;-90
2023/04/26 23:32:36;;;;;;;0.27;0.27;;;;;;;;;;4994709;28;20319;-89
2023/04/26 23:35:05;;;;;;;0.50;0.50;;;;;;;;;;4998327;28;20197;-88
2023/04/26 23:37:37;;;;;;;0.10;0.10;;;;;;;;;;4997538;28;20217;-91
2023/04/26 23:40:10;;;;;;;0.77;0.77;;;;;;;;;;4997078;28;20265;-89
2023/04/26 23:42:40;;;;;;;0.57;0.50;;;;;;;;;;4996770;28;20205;-90
2023/04/26 23:45:08;;;;;;;0.20;0.20;;;;;;;;;;4997112;28;20197;-89
2023/04/26 23:47:36;;;;;;;0.20;0.20;;;;;;;;;;4997570;28;20315;-89
2023/04/26 23:50:04;;;;;;;0.20;0.20;;;;;;;;;;4996752;28;20204;-88
2023/04/26 23:52:38;;;;;;;0.10;0.10;;;;;;;;;;4997112;28;20323;-90
2023/04/26 23:55:08;;;;;;;0.10;0.10;;;;;;;;;;4996750;28;20198;-91
2023/04/26 23:57:39;;;;;;;0.10;0.10;;;;;;;;;;4996784;28;20239;-89
